30 min.
METAR EHMG 151555Z AUTO 04008KT 9999 NSC 07/03 Q1033

METAR uitleg | Integreren

METAR L9-FF-1

Dit veld bevindt zich in Nederland.

Dit rapport is opgesteld voor L9-FF-1 op 15 april 2021 17:55, lokale tijd.

Vliegveldwaarnemingen

De wind staat vanuit de richting noordoost (040°) met een snelheid van 8 kt.

Het zicht is 10 km of meer.

Er is geen significante bewolking waargenomen. Er is geen wolkenbasis waargenomen.

De temperatuur is 7 °C, met een gevoelstemperatuur van 3 °C. Het dauwpunt is 3 °C, dus is de relatieve luchtvochtigheid 76%. De luchtdruk op zeeniveau is 1033 hPa (QNH).

Daglichtperiode

De zon komt vandaag op om 06:39 en gaat onder om 20:41. Dit geldt voor L9-FF-1, de universele daglichtperiode kan anders zijn. Het verschil tussen de lokale tijd en UTC is +2 uur. Op dit moment is er sprake van zomertijd.

Historische gegevens

Doneren

Help je mee om Metar-Taf.com draaiend te houden?
Jouw bijdrage helpt om de site verder te ontwikkelen en om de kosten te betalen.

Nooit meer advertenties

Doneer je € 5 of meer? Dan laten we je nooit meer advertenties zien, als blijk van onze eeuwige dankbaarheid!
Log wel even in voordat je doneert

Wil je het vliegweer van L9-FF-1 op jouw website? Meer info   Gratis!